Birmingham, United Kingdom
Current Conditions -  °F | °C
As of 8:20 PM on Friday 28 Nov 2014 (Local Time) from EGBB Reporting Station
Overcast Overcast  
Wind Chill: 50°   Ceiling: 900
Heat Index: 50°   Visibility: 4mi
Dew Point: 46°   Wind: 9mph
Humidity: 87%   Direction: 70°ENE
Pressure: 29.74"   Gusts: NA
Location:  52.48°N, 1.89°W
Report Text: EGBB 282020Z 07008KT 6000 OVC009 10/08 Q1007
Loading
Personal Weather Stations






























Interactive Weather Map New forecast layout! Learn more

10-Day Weather Forecast

Advertisements
Track Severe Weather on mobile